Terminal Aerodrome Forecast
Issued by NWS

Home | Current Version | Previous Version | Graphics & Text | Print | Product List | Glossary On
Versions: 1 2 3 4 5 6 7 8 9 10 11 12 13 14 15 16 17 18 19 20
000
FTUS43 KABR 271100 AAB
TAFATY
TAF AMD
KATY 271106Z 2711/2806 VRB05KT 5SM BR BKN001
      TEMPO 2711/2713 1SM BR
     FM271500 16013KT P6SM SKC=

USA.gov is the U.S. government's official web portal to all federal, state and local government web resources and services.